sensor_id;sensor_type;location;lat;lon;timestamp;P1;durP1;ratioP1;P2;durP2;ratioP2
17310;SDS011;8773;43.300;0.394;2022-12-29T00:01:50;9.73;;;8.53;;
17310;SDS011;8773;43.300;0.394;2022-12-29T00:04:19;8.90;;;8.10;;
17310;SDS011;8773;43.300;0.394;2022-12-29T00:06:47;8.70;;;7.93;;
17310;SDS011;8773;43.300;0.394;2022-12-29T00:09:17;9.83;;;7.87;;
17310;SDS011;8773;43.300;0.394;2022-12-29T00:11:45;9.10;;;8.20;;
17310;SDS011;8773;43.300;0.394;2022-12-29T00:14:13;10.33;;;7.87;;
17310;SDS011;8773;43.300;0.394;2022-12-29T00:16:59;9.00;;;8.20;;
17310;SDS011;8773;43.300;0.394;2022-12-29T00:19:27;9.80;;;8.90;;
17310;SDS011;8773;43.300;0.394;2022-12-29T00:22:13;12.20;;;9.83;;
17310;SDS011;8773;43.300;0.394;2022-12-29T00:25:01;10.70;;;9.60;;
17310;SDS011;8773;43.300;0.394;2022-12-29T00:27:46;10.37;;;9.40;;
17310;SDS011;8773;43.300;0.394;2022-12-29T00:30:33;11.10;;;10.10;;
17310;SDS011;8773;43.300;0.394;2022-12-29T00:33:21;10.10;;;9.07;;
17310;SDS011;8773;43.300;0.394;2022-12-29T00:36:11;9.53;;;8.57;;
17310;SDS011;8773;43.300;0.394;2022-12-29T00:38:44;12.03;;;8.70;;
17310;SDS011;8773;43.300;0.394;2022-12-29T00:41:34;8.80;;;8.00;;
17310;SDS011;8773;43.300;0.394;2022-12-29T00:44:20;9.83;;;7.77;;
17310;SDS011;8773;43.300;0.394;2022-12-29T00:46:48;8.63;;;7.73;;
17310;SDS011;8773;43.300;0.394;2022-12-29T00:49:16;9.27;;;8.37;;
17310;SDS011;8773;43.300;0.394;2022-12-29T00:52:00;9.57;;;8.53;;
17310;SDS011;8773;43.300;0.394;2022-12-29T00:54:30;8.47;;;7.77;;
17310;SDS011;8773;43.300;0.394;2022-12-29T00:57:03;8.57;;;7.53;;
17310;SDS011;8773;43.300;0.394;2022-12-29T00:59:34;8.93;;;8.03;;
17310;SDS011;8773;43.300;0.394;2022-12-29T01:02:02;9.13;;;8.23;;
17310;SDS011;8773;43.300;0.394;2022-12-29T01:04:30;11.17;;;8.43;;
17310;SDS011;8773;43.300;0.394;2022-12-29T01:06:59;12.40;;;8.33;;
17310;SDS011;8773;43.300;0.394;2022-12-29T01:09:27;9.80;;;8.80;;
17310;SDS011;8773;43.300;0.394;2022-12-29T01:12:14;8.70;;;7.90;;
17310;SDS011;8773;43.300;0.394;2022-12-29T01:14:43;9.23;;;8.43;;
17310;SDS011;8773;43.300;0.394;2022-12-29T01:17:11;9.70;;;8.80;;
17310;SDS011;8773;43.300;0.394;2022-12-29T01:19:39;10.10;;;9.10;;
17310;SDS011;8773;43.300;0.394;2022-12-29T01:22:07;9.00;;;8.07;;
17310;SDS011;8773;43.300;0.394;2022-12-29T01:24:36;9.10;;;8.30;;
17310;SDS011;8773;43.300;0.394;2022-12-29T01:27:04;11.63;;;9.20;;
17310;SDS011;8773;43.300;0.394;2022-12-29T01:29:33;9.10;;;8.30;;
17310;SDS011;8773;43.300;0.394;2022-12-29T01:32:01;9.93;;;8.90;;
17310;SDS011;8773;43.300;0.394;2022-12-29T01:34:30;9.47;;;8.47;;
17310;SDS011;8773;43.300;0.394;2022-12-29T01:36:58;9.60;;;8.60;;
17310;SDS011;8773;43.300;0.394;2022-12-29T01:39:26;9.53;;;8.57;;
17310;SDS011;8773;43.300;0.394;2022-12-29T01:41:54;9.00;;;8.10;;
17310;SDS011;8773;43.300;0.394;2022-12-29T01:47:19;8.80;;;8.10;;
17310;SDS011;8773;43.300;0.394;2022-12-29T01:49:52;8.77;;;7.87;;
17310;SDS011;8773;43.300;0.394;2022-12-29T01:52:22;11.00;;;8.10;;
17310;SDS011;8773;43.300;0.394;2022-12-29T01:54:52;9.27;;;8.00;;
17310;SDS011;8773;43.300;0.394;2022-12-29T01:57:23;12.60;;;8.53;;
17310;SDS011;8773;43.300;0.394;2022-12-29T01:59:56;9.60;;;7.87;;
17310;SDS011;8773;43.300;0.394;2022-12-29T02:02:30;9.03;;;8.23;;
17310;SDS011;8773;43.300;0.394;2022-12-29T02:04:59;8.63;;;7.80;;
17310;SDS011;8773;43.300;0.394;2022-12-29T02:07:35;8.90;;;8.10;;
17310;SDS011;8773;43.300;0.394;2022-12-29T02:10:04;7.80;;;7.10;;
17310;SDS011;8773;43.300;0.394;2022-12-29T02:12:33;8.70;;;7.87;;
17310;SDS011;8773;43.300;0.394;2022-12-29T02:15:03;9.00;;;8.10;;
17310;SDS011;8773;43.300;0.394;2022-12-29T02:17:37;8.83;;;7.93;;
17310;SDS011;8773;43.300;0.394;2022-12-29T02:20:31;8.00;;;7.17;;
17310;SDS011;8773;43.300;0.394;2022-12-29T02:23:23;8.70;;;7.80;;
17310;SDS011;8773;43.300;0.394;2022-12-29T02:26:09;8.40;;;7.60;;
17310;SDS011;8773;43.300;0.394;2022-12-29T02:29:05;9.23;;;7.80;;
17310;SDS011;8773;43.300;0.394;2022-12-29T02:31:50;8.03;;;7.30;;
17310;SDS011;8773;43.300;0.394;2022-12-29T02:34:30;9.97;;;7.83;;
17310;SDS011;8773;43.300;0.394;2022-12-29T02:37:09;7.60;;;7.00;;
17310;SDS011;8773;43.300;0.394;2022-12-29T02:39:50;7.93;;;7.23;;
17310;SDS011;8773;43.300;0.394;2022-12-29T02:42:27;8.73;;;7.47;;
17310;SDS011;8773;43.300;0.394;2022-12-29T02:45:02;9.13;;;7.57;;
17310;SDS011;8773;43.300;0.394;2022-12-29T02:47:37;7.97;;;7.17;;
17310;SDS011;8773;43.300;0.394;2022-12-29T02:50:13;8.20;;;7.40;;
17310;SDS011;8773;43.300;0.394;2022-12-29T02:52:46;10.40;;;7.70;;
17310;SDS011;8773;43.300;0.394;2022-12-29T02:55:18;9.87;;;8.03;;
17310;SDS011;8773;43.300;0.394;2022-12-29T02:57:45;8.97;;;8.07;;
17310;SDS011;8773;43.300;0.394;2022-12-29T03:00:14;8.23;;;7.40;;
17310;SDS011;8773;43.300;0.394;2022-12-29T03:02:53;8.23;;;7.43;;
17310;SDS011;8773;43.300;0.394;2022-12-29T03:05:48;9.83;;;7.67;;
17310;SDS011;8773;43.300;0.394;2022-12-29T03:08:34;8.80;;;7.90;;
17310;SDS011;8773;43.300;0.394;2022-12-29T03:11:17;9.07;;;7.67;;
17310;SDS011;8773;43.300;0.394;2022-12-29T03:14:05;8.33;;;7.53;;
17310;SDS011;8773;43.300;0.394;2022-12-29T03:16:55;8.00;;;7.20;;
17310;SDS011;8773;43.300;0.394;2022-12-29T03:19:30;9.17;;;7.40;;
17310;SDS011;8773;43.300;0.394;2022-12-29T03:22:03;7.37;;;6.70;;
17310;SDS011;8773;43.300;0.394;2022-12-29T03:24:51;8.00;;;7.20;;
17310;SDS011;8773;43.300;0.394;2022-12-29T03:27:24;9.07;;;7.43;;
17310;SDS011;8773;43.300;0.394;2022-12-29T03:29:57;7.77;;;7.07;;
17310;SDS011;8773;43.300;0.394;2022-12-29T03:32:28;8.30;;;7.60;;
17310;SDS011;8773;43.300;0.394;2022-12-29T03:35:01;9.40;;;7.10;;
17310;SDS011;8773;43.300;0.394;2022-12-29T03:37:32;7.43;;;6.77;;
17310;SDS011;8773;43.300;0.394;2022-12-29T03:40:05;8.80;;;7.93;;
17310;SDS011;8773;43.300;0.394;2022-12-29T03:42:35;8.37;;;7.47;;
17310;SDS011;8773;43.300;0.394;2022-12-29T03:45:05;9.57;;;7.50;;
17310;SDS011;8773;43.300;0.394;2022-12-29T03:47:35;7.93;;;7.10;;
17310;SDS011;8773;43.300;0.394;2022-12-29T03:50:05;7.67;;;6.90;;
17310;SDS011;8773;43.300;0.394;2022-12-29T03:52:35;10.27;;;7.43;;
17310;SDS011;8773;43.300;0.394;2022-12-29T03:55:03;7.70;;;6.90;;
17310;SDS011;8773;43.300;0.394;2022-12-29T03:57:32;8.33;;;6.77;;
17310;SDS011;8773;43.300;0.394;2022-12-29T04:00:01;7.33;;;6.67;;
17310;SDS011;8773;43.300;0.394;2022-12-29T04:02:30;8.73;;;7.37;;
17310;SDS011;8773;43.300;0.394;2022-12-29T04:04:59;8.90;;;7.27;;
17310;SDS011;8773;43.300;0.394;2022-12-29T04:07:29;7.87;;;6.83;;
17310;SDS011;8773;43.300;0.394;2022-12-29T04:09:57;7.20;;;6.50;;
17310;SDS011;8773;43.300;0.394;2022-12-29T04:12:25;7.80;;;6.60;;
17310;SDS011;8773;43.300;0.394;2022-12-29T04:14:53;7.60;;;6.73;;
17310;SDS011;8773;43.300;0.394;2022-12-29T04:17:21;7.53;;;6.83;;
17310;SDS011;8773;43.300;0.394;2022-12-29T04:19:52;7.50;;;6.80;;
17310;SDS011;8773;43.300;0.394;2022-12-29T04:22:43;7.63;;;6.53;;
17310;SDS011;8773;43.300;0.394;2022-12-29T04:25:11;6.73;;;5.83;;
17310;SDS011;8773;43.300;0.394;2022-12-29T04:27:39;7.60;;;6.47;;
17310;SDS011;8773;43.300;0.394;2022-12-29T04:30:08;8.40;;;6.40;;
17310;SDS011;8773;43.300;0.394;2022-12-29T04:32:37;7.50;;;6.23;;
17310;SDS011;8773;43.300;0.394;2022-12-29T04:35:06;7.10;;;6.40;;
17310;SDS011;8773;43.300;0.394;2022-12-29T04:37:35;6.60;;;5.97;;
17310;SDS011;8773;43.300;0.394;2022-12-29T04:40:05;5.93;;;5.43;;
17310;SDS011;8773;43.300;0.394;2022-12-29T04:42:34;6.37;;;5.87;;
17310;SDS011;8773;43.300;0.394;2022-12-29T04:45:02;6.00;;;5.40;;
17310;SDS011;8773;43.300;0.394;2022-12-29T04:47:30;5.93;;;5.33;;
17310;SDS011;8773;43.300;0.394;2022-12-29T04:49:59;6.47;;;5.60;;
17310;SDS011;8773;43.300;0.394;2022-12-29T04:52:27;5.20;;;4.73;;
17310;SDS011;8773;43.300;0.394;2022-12-29T04:54:56;5.90;;;5.30;;
17310;SDS011;8773;43.300;0.394;2022-12-29T04:57:25;6.30;;;5.70;;
17310;SDS011;8773;43.300;0.394;2022-12-29T04:59:54;5.80;;;5.40;;
17310;SDS011;8773;43.300;0.394;2022-12-29T05:02:22;5.83;;;5.33;;
17310;SDS011;8773;43.300;0.394;2022-12-29T05:04:50;6.47;;;5.67;;
17310;SDS011;8773;43.300;0.394;2022-12-29T05:07:18;5.67;;;5.27;;
17310;SDS011;8773;43.300;0.394;2022-12-29T05:09:46;6.43;;;5.83;;
17310;SDS011;8773;43.300;0.394;2022-12-29T05:12:14;7.87;;;5.90;;
17310;SDS011;8773;43.300;0.394;2022-12-29T05:14:44;7.93;;;5.47;;
17310;SDS011;8773;43.300;0.394;2022-12-29T05:17:13;7.53;;;5.93;;
17310;SDS011;8773;43.300;0.394;2022-12-29T05:19:42;5.50;;;5.07;;
17310;SDS011;8773;43.300;0.394;2022-12-29T05:22:10;6.33;;;5.70;;
17310;SDS011;8773;43.300;0.394;2022-12-29T05:24:39;5.80;;;4.60;;
17310;SDS011;8773;43.300;0.394;2022-12-29T05:27:07;7.03;;;5.17;;
17310;SDS011;8773;43.300;0.394;2022-12-29T05:29:36;6.70;;;5.60;;
17310;SDS011;8773;43.300;0.394;2022-12-29T05:32:05;6.93;;;5.27;;
17310;SDS011;8773;43.300;0.394;2022-12-29T05:34:34;5.87;;;5.37;;
17310;SDS011;8773;43.300;0.394;2022-12-29T05:37:02;6.53;;;5.13;;
17310;SDS011;8773;43.300;0.394;2022-12-29T05:39:30;6.07;;;5.43;;
17310;SDS011;8773;43.300;0.394;2022-12-29T05:41:58;7.33;;;6.07;;
17310;SDS011;8773;43.300;0.394;2022-12-29T05:44:26;6.47;;;5.77;;
17310;SDS011;8773;43.300;0.394;2022-12-29T05:46:54;6.23;;;5.63;;
17310;SDS011;8773;43.300;0.394;2022-12-29T05:49:23;6.10;;;4.80;;
17310;SDS011;8773;43.300;0.394;2022-12-29T05:51:52;6.70;;;5.10;;
17310;SDS011;8773;43.300;0.394;2022-12-29T05:54:20;8.27;;;5.53;;
17310;SDS011;8773;43.300;0.394;2022-12-29T05:56:48;6.07;;;5.30;;
17310;SDS011;8773;43.300;0.394;2022-12-29T05:59:16;6.40;;;5.80;;
17310;SDS011;8773;43.300;0.394;2022-12-29T06:01:44;7.73;;;5.63;;
17310;SDS011;8773;43.300;0.394;2022-12-29T06:04:12;6.20;;;4.90;;
17310;SDS011;8773;43.300;0.394;2022-12-29T06:06:41;7.03;;;5.40;;
17310;SDS011;8773;43.300;0.394;2022-12-29T06:09:12;6.53;;;5.30;;
17310;SDS011;8773;43.300;0.394;2022-12-29T06:11:40;8.20;;;5.70;;
17310;SDS011;8773;43.300;0.394;2022-12-29T06:14:09;6.37;;;5.77;;
17310;SDS011;8773;43.300;0.394;2022-12-29T06:16:37;8.27;;;6.50;;
17310;SDS011;8773;43.300;0.394;2022-12-29T06:19:05;9.67;;;8.17;;
17310;SDS011;8773;43.300;0.394;2022-12-29T06:21:33;13.17;;;9.50;;
17310;SDS011;8773;43.300;0.394;2022-12-29T06:24:03;11.27;;;8.63;;
17310;SDS011;8773;43.300;0.394;2022-12-29T06:26:32;6.43;;;5.77;;
17310;SDS011;8773;43.300;0.394;2022-12-29T06:29:00;8.67;;;6.50;;
17310;SDS011;8773;43.300;0.394;2022-12-29T06:31:29;6.77;;;5.63;;
17310;SDS011;8773;43.300;0.394;2022-12-29T06:33:58;6.70;;;6.10;;
17310;SDS011;8773;43.300;0.394;2022-12-29T06:36:34;6.53;;;5.93;;
17310;SDS011;8773;43.300;0.394;2022-12-29T06:39:03;6.17;;;5.53;;
17310;SDS011;8773;43.300;0.394;2022-12-29T06:41:31;9.13;;;6.77;;
17310;SDS011;8773;43.300;0.394;2022-12-29T06:43:59;7.97;;;6.93;;
17310;SDS011;8773;43.300;0.394;2022-12-29T06:46:28;7.60;;;6.40;;
17310;SDS011;8773;43.300;0.394;2022-12-29T06:48:56;7.77;;;6.93;;
17310;SDS011;8773;43.300;0.394;2022-12-29T06:51:24;8.13;;;7.33;;
17310;SDS011;8773;43.300;0.394;2022-12-29T06:53:52;10.37;;;7.73;;
17310;SDS011;8773;43.300;0.394;2022-12-29T06:56:22;10.23;;;8.43;;
17310;SDS011;8773;43.300;0.394;2022-12-29T06:58:50;10.70;;;7.63;;
17310;SDS011;8773;43.300;0.394;2022-12-29T07:01:18;8.37;;;7.40;;
17310;SDS011;8773;43.300;0.394;2022-12-29T07:03:46;7.83;;;6.07;;
17310;SDS011;8773;43.300;0.394;2022-12-29T07:06:14;8.47;;;6.10;;
17310;SDS011;8773;43.300;0.394;2022-12-29T07:08:42;6.37;;;5.73;;
17310;SDS011;8773;43.300;0.394;2022-12-29T07:11:11;7.73;;;6.07;;
17310;SDS011;8773;43.300;0.394;2022-12-29T07:13:40;15.20;;;11.53;;
17310;SDS011;8773;43.300;0.394;2022-12-29T07:16:09;66.30;;;42.50;;
17310;SDS011;8773;43.300;0.394;2022-12-29T07:18:38;34.23;;;20.50;;
17310;SDS011;8773;43.300;0.394;2022-12-29T07:21:06;32.27;;;19.97;;
17310;SDS011;8773;43.300;0.394;2022-12-29T07:23:34;22.93;;;14.63;;
17310;SDS011;8773;43.300;0.394;2022-12-29T07:26:03;21.17;;;14.57;;
17310;SDS011;8773;43.300;0.394;2022-12-29T07:28:32;19.07;;;14.93;;
17310;SDS011;8773;43.300;0.394;2022-12-29T07:31:03;18.30;;;12.60;;
17310;SDS011;8773;43.300;0.394;2022-12-29T07:33:31;23.57;;;15.17;;
17310;SDS011;8773;43.300;0.394;2022-12-29T07:36:00;21.13;;;16.37;;
17310;SDS011;8773;43.300;0.394;2022-12-29T07:38:28;11.40;;;8.50;;
17310;SDS011;8773;43.300;0.394;2022-12-29T07:40:56;7.80;;;7.03;;
17310;SDS011;8773;43.300;0.394;2022-12-29T07:43:25;9.37;;;7.40;;
17310;SDS011;8773;43.300;0.394;2022-12-29T07:45:53;8.30;;;7.60;;
17310;SDS011;8773;43.300;0.394;2022-12-29T07:48:23;9.13;;;7.67;;
17310;SDS011;8773;43.300;0.394;2022-12-29T07:50:51;7.83;;;7.03;;
17310;SDS011;8773;43.300;0.394;2022-12-29T07:53:20;9.83;;;6.10;;
17310;SDS011;8773;43.300;0.394;2022-12-29T07:55:48;5.50;;;5.00;;
17310;SDS011;8773;43.300;0.394;2022-12-29T07:58:16;5.63;;;4.87;;
17310;SDS011;8773;43.300;0.394;2022-12-29T08:00:44;5.60;;;4.43;;
17310;SDS011;8773;43.300;0.394;2022-12-29T08:03:12;5.00;;;4.60;;
17310;SDS011;8773;43.300;0.394;2022-12-29T08:05:42;5.10;;;4.60;;
17310;SDS011;8773;43.300;0.394;2022-12-29T08:08:10;5.97;;;4.47;;
17310;SDS011;8773;43.300;0.394;2022-12-29T08:10:38;5.03;;;4.60;;
17310;SDS011;8773;43.300;0.394;2022-12-29T08:13:06;6.00;;;4.53;;
17310;SDS011;8773;43.300;0.394;2022-12-29T08:15:34;5.70;;;3.93;;
17310;SDS011;8773;43.300;0.394;2022-12-29T08:18:04;6.17;;;4.77;;
17310;SDS011;8773;43.300;0.394;2022-12-29T08:20:32;6.27;;;5.63;;
17310;SDS011;8773;43.300;0.394;2022-12-29T08:23:02;6.47;;;5.97;;
17310;SDS011;8773;43.300;0.394;2022-12-29T08:25:30;8.63;;;5.80;;
17310;SDS011;8773;43.300;0.394;2022-12-29T08:27:58;7.07;;;6.10;;
17310;SDS011;8773;43.300;0.394;2022-12-29T08:30:26;8.47;;;6.27;;
17310;SDS011;8773;43.300;0.394;2022-12-29T08:32:54;6.53;;;5.93;;
17310;SDS011;8773;43.300;0.394;2022-12-29T08:35:22;7.57;;;6.07;;
17310;SDS011;8773;43.300;0.394;2022-12-29T08:37:51;6.00;;;5.50;;
17310;SDS011;8773;43.300;0.394;2022-12-29T08:40:20;6.17;;;5.67;;
17310;SDS011;8773;43.300;0.394;2022-12-29T08:42:49;6.87;;;5.70;;
17310;SDS011;8773;43.300;0.394;2022-12-29T08:45:17;5.40;;;4.90;;
17310;SDS011;8773;43.300;0.394;2022-12-29T08:47:45;8.13;;;5.40;;
17310;SDS011;8773;43.300;0.394;2022-12-29T08:50:13;6.33;;;5.73;;
17310;SDS011;8773;43.300;0.394;2022-12-29T08:52:41;5.10;;;4.73;;
17310;SDS011;8773;43.300;0.394;2022-12-29T08:55:09;4.80;;;4.40;;
17310;SDS011;8773;43.300;0.394;2022-12-29T08:57:39;6.87;;;6.03;;
17310;SDS011;8773;43.300;0.394;2022-12-29T09:00:08;5.40;;;4.90;;
17310;SDS011;8773;43.300;0.394;2022-12-29T09:02:37;7.83;;;4.93;;
17310;SDS011;8773;43.300;0.394;2022-12-29T09:05:06;5.90;;;4.77;;
17310;SDS011;8773;43.300;0.394;2022-12-29T09:07:34;5.57;;;4.83;;
17310;SDS011;8773;43.300;0.394;2022-12-29T09:10:05;7.43;;;4.70;;
17310;SDS011;8773;43.300;0.394;2022-12-29T09:12:34;5.17;;;4.70;;
17310;SDS011;8773;43.300;0.394;2022-12-29T09:15:04;6.70;;;4.80;;
17310;SDS011;8773;43.300;0.394;2022-12-29T09:17:33;6.77;;;5.30;;
17310;SDS011;8773;43.300;0.394;2022-12-29T09:20:14;4.93;;;4.47;;
17310;SDS011;8773;43.300;0.394;2022-12-29T09:22:44;5.63;;;5.05;;
17310;SDS011;8773;43.300;0.394;2022-12-29T09:25:13;4.87;;;4.47;;
17310;SDS011;8773;43.300;0.394;2022-12-29T09:27:41;5.07;;;4.57;;
17310;SDS011;8773;43.300;0.394;2022-12-29T09:30:12;6.80;;;5.30;;
17310;SDS011;8773;43.300;0.394;2022-12-29T09:32:41;6.37;;;4.43;;
17310;SDS011;8773;43.300;0.394;2022-12-29T09:35:11;5.10;;;4.70;;
17310;SDS011;8773;43.300;0.394;2022-12-29T09:37:40;6.37;;;4.80;;
17310;SDS011;8773;43.300;0.394;2022-12-29T09:40:13;5.03;;;4.50;;
17310;SDS011;8773;43.300;0.394;2022-12-29T09:42:55;5.10;;;4.23;;
17310;SDS011;8773;43.300;0.394;2022-12-29T09:45:36;5.07;;;4.60;;
17310;SDS011;8773;43.300;0.394;2022-12-29T09:48:11;4.90;;;4.50;;
17310;SDS011;8773;43.300;0.394;2022-12-29T09:50:44;5.63;;;5.10;;
17310;SDS011;8773;43.300;0.394;2022-12-29T09:53:18;6.53;;;4.57;;
17310;SDS011;8773;43.300;0.394;2022-12-29T09:55:54;7.00;;;5.03;;
17310;SDS011;8773;43.300;0.394;2022-12-29T09:58:26;6.83;;;4.70;;
17310;SDS011;8773;43.300;0.394;2022-12-29T10:01:02;6.47;;;4.87;;
17310;SDS011;8773;43.300;0.394;2022-12-29T10:03:36;6.00;;;5.23;;
17310;SDS011;8773;43.300;0.394;2022-12-29T10:06:19;6.27;;;5.20;;
17310;SDS011;8773;43.300;0.394;2022-12-29T10:08:54;5.70;;;4.70;;
17310;SDS011;8773;43.300;0.394;2022-12-29T10:11:29;17.77;;;10.07;;
17310;SDS011;8773;43.300;0.394;2022-12-29T10:14:13;6.93;;;5.70;;
17310;SDS011;8773;43.300;0.394;2022-12-29T10:16:59;6.93;;;5.40;;
17310;SDS011;8773;43.300;0.394;2022-12-29T10:19:43;6.00;;;5.03;;
17310;SDS011;8773;43.300;0.394;2022-12-29T10:22:25;5.23;;;4.73;;
17310;SDS011;8773;43.300;0.394;2022-12-29T10:25:10;5.63;;;4.80;;
17310;SDS011;8773;43.300;0.394;2022-12-29T10:27:40;5.13;;;4.83;;
17310;SDS011;8773;43.300;0.394;2022-12-29T10:30:11;5.77;;;5.27;;
17310;SDS011;8773;43.300;0.394;2022-12-29T10:32:43;5.70;;;4.93;;
17310;SDS011;8773;43.300;0.394;2022-12-29T10:35:18;7.00;;;4.90;;
17310;SDS011;8773;43.300;0.394;2022-12-29T10:37:49;5.37;;;4.93;;
17310;SDS011;8773;43.300;0.394;2022-12-29T10:40:25;5.73;;;5.20;;
17310;SDS011;8773;43.300;0.394;2022-12-29T10:43:00;6.17;;;5.07;;
17310;SDS011;8773;43.300;0.394;2022-12-29T10:45:48;4.97;;;4.57;;
17310;SDS011;8773;43.300;0.394;2022-12-29T10:48:19;5.63;;;4.47;;
17310;SDS011;8773;43.300;0.394;2022-12-29T10:50:57;5.50;;;4.87;;
17310;SDS011;8773;43.300;0.394;2022-12-29T10:53:30;5.57;;;5.00;;
17310;SDS011;8773;43.300;0.394;2022-12-29T10:56:14;5.97;;;5.33;;
17310;SDS011;8773;43.300;0.394;2022-12-29T10:58:49;10.03;;;6.33;;
17310;SDS011;8773;43.300;0.394;2022-12-29T11:01:18;8.17;;;6.07;;
17310;SDS011;8773;43.300;0.394;2022-12-29T11:04:00;5.97;;;5.37;;
17310;SDS011;8773;43.300;0.394;2022-12-29T11:06:31;5.13;;;4.73;;
17310;SDS011;8773;43.300;0.394;2022-12-29T11:09:01;16.17;;;9.97;;
17310;SDS011;8773;43.300;0.394;2022-12-29T11:11:37;9.20;;;7.37;;
17310;SDS011;8773;43.300;0.394;2022-12-29T11:14:10;6.00;;;5.40;;
17310;SDS011;8773;43.300;0.394;2022-12-29T11:16:40;4.87;;;4.10;;
17310;SDS011;8773;43.300;0.394;2022-12-29T11:19:21;6.00;;;4.57;;
17310;SDS011;8773;43.300;0.394;2022-12-29T11:21:51;8.60;;;5.70;;
17310;SDS011;8773;43.300;0.394;2022-12-29T11:24:21;6.07;;;5.40;;
17310;SDS011;8773;43.300;0.394;2022-12-29T11:26:51;6.57;;;5.57;;
17310;SDS011;8773;43.300;0.394;2022-12-29T11:29:24;7.07;;;6.33;;
17310;SDS011;8773;43.300;0.394;2022-12-29T11:31:54;15.20;;;8.97;;
17310;SDS011;8773;43.300;0.394;2022-12-29T11:34:30;23.70;;;10.90;;
17310;SDS011;8773;43.300;0.394;2022-12-29T11:37:01;12.97;;;10.00;;
17310;SDS011;8773;43.300;0.394;2022-12-29T11:39:34;12.47;;;10.60;;
17310;SDS011;8773;43.300;0.394;2022-12-29T11:42:11;8.23;;;6.67;;
17310;SDS011;8773;43.300;0.394;2022-12-29T11:44:43;5.93;;;5.33;;
17310;SDS011;8773;43.300;0.394;2022-12-29T11:47:19;6.87;;;5.93;;
17310;SDS011;8773;43.300;0.394;2022-12-29T11:49:53;6.60;;;5.90;;
17310;SDS011;8773;43.300;0.394;2022-12-29T11:52:24;7.97;;;5.37;;
17310;SDS011;8773;43.300;0.394;2022-12-29T11:54:54;6.00;;;4.87;;
17310;SDS011;8773;43.300;0.394;2022-12-29T11:57:24;6.03;;;5.53;;
17310;SDS011;8773;43.300;0.394;2022-12-29T11:59:53;6.60;;;5.87;;
17310;SDS011;8773;43.300;0.394;2022-12-29T12:05:24;8.27;;;4.93;;
17310;SDS011;8773;43.300;0.394;2022-12-29T12:08:00;5.57;;;4.70;;
17310;SDS011;8773;43.300;0.394;2022-12-29T12:10:35;6.10;;;4.07;;
17310;SDS011;8773;43.300;0.394;2022-12-29T12:13:14;6.57;;;4.03;;
17310;SDS011;8773;43.300;0.394;2022-12-29T12:15:49;4.27;;;3.97;;
17310;SDS011;8773;43.300;0.394;2022-12-29T12:18:25;4.30;;;3.50;;
17310;SDS011;8773;43.300;0.394;2022-12-29T12:21:05;6.53;;;3.00;;
17310;SDS011;8773;43.300;0.394;2022-12-29T12:23:40;4.00;;;3.13;;
17310;SDS011;8773;43.300;0.394;2022-12-29T12:26:21;3.80;;;2.90;;
17310;SDS011;8773;43.300;0.394;2022-12-29T12:28:58;2.80;;;2.60;;
17310;SDS011;8773;43.300;0.394;2022-12-29T12:31:34;3.03;;;2.63;;
17310;SDS011;8773;43.300;0.394;2022-12-29T12:34:13;2.73;;;2.53;;
17310;SDS011;8773;43.300;0.394;2022-12-29T12:36:53;2.97;;;2.57;;
17310;SDS011;8773;43.300;0.394;2022-12-29T12:39:31;2.97;;;2.47;;
17310;SDS011;8773;43.300;0.394;2022-12-29T12:42:11;3.13;;;2.83;;
17310;SDS011;8773;43.300;0.394;2022-12-29T12:44:53;3.27;;;2.97;;
17310;SDS011;8773;43.300;0.394;2022-12-29T12:47:38;4.10;;;2.87;;
17310;SDS011;8773;43.300;0.394;2022-12-29T12:50:29;4.57;;;3.30;;
17310;SDS011;8773;43.300;0.394;2022-12-29T12:53:22;4.13;;;2.80;;
17310;SDS011;8773;43.300;0.394;2022-12-29T12:56:03;4.30;;;3.00;;
17310;SDS011;8773;43.300;0.394;2022-12-29T12:58:48;3.43;;;2.50;;
17310;SDS011;8773;43.300;0.394;2022-12-29T13:01:24;4.70;;;3.20;;
17310;SDS011;8773;43.300;0.394;2022-12-29T13:04:12;5.57;;;3.40;;
17310;SDS011;8773;43.300;0.394;2022-12-29T13:07:05;3.87;;;2.43;;
17310;SDS011;8773;43.300;0.394;2022-12-29T13:09:48;3.10;;;2.50;;
17310;SDS011;8773;43.300;0.394;2022-12-29T13:12:31;3.57;;;3.00;;
17310;SDS011;8773;43.300;0.394;2022-12-29T13:15:12;3.73;;;3.13;;
17310;SDS011;8773;43.300;0.394;2022-12-29T13:17:50;7.97;;;5.33;;
17310;SDS011;8773;43.300;0.394;2022-12-29T13:20:28;7.20;;;4.90;;
17310;SDS011;8773;43.300;0.394;2022-12-29T13:23:05;3.30;;;2.67;;
17310;SDS011;8773;43.300;0.394;2022-12-29T13:25:41;8.03;;;5.43;;
17310;SDS011;8773;43.300;0.394;2022-12-29T13:28:16;2.80;;;2.60;;
17310;SDS011;8773;43.300;0.394;2022-12-29T13:30:55;8.27;;;4.47;;
17310;SDS011;8773;43.300;0.394;2022-12-29T13:33:29;4.60;;;3.27;;
17310;SDS011;8773;43.300;0.394;2022-12-29T13:36:09;3.33;;;3.00;;
17310;SDS011;8773;43.300;0.394;2022-12-29T13:38:48;2.67;;;2.43;;
17310;SDS011;8773;43.300;0.394;2022-12-29T13:41:22;5.03;;;3.83;;
17310;SDS011;8773;43.300;0.394;2022-12-29T13:43:57;2.97;;;2.73;;
17310;SDS011;8773;43.300;0.394;2022-12-29T13:46:28;6.63;;;4.73;;
17310;SDS011;8773;43.300;0.394;2022-12-29T13:49:01;7.40;;;4.87;;
17310;SDS011;8773;43.300;0.394;2022-12-29T13:51:35;38.03;;;15.77;;
17310;SDS011;8773;43.300;0.394;2022-12-29T13:54:13;16.60;;;7.50;;
17310;SDS011;8773;43.300;0.394;2022-12-29T13:56:51;29.33;;;14.93;;
17310;SDS011;8773;43.300;0.394;2022-12-29T13:59:24;5.80;;;4.00;;
17310;SDS011;8773;43.300;0.394;2022-12-29T14:02:10;5.93;;;5.43;;
17310;SDS011;8773;43.300;0.394;2022-12-29T14:04:55;3.97;;;3.67;;
17310;SDS011;8773;43.300;0.394;2022-12-29T14:07:25;4.40;;;4.00;;
17310;SDS011;8773;43.300;0.394;2022-12-29T14:09:55;4.67;;;4.20;;
17310;SDS011;8773;43.300;0.394;2022-12-29T14:12:29;7.37;;;4.33;;
17310;SDS011;8773;43.300;0.394;2022-12-29T14:15:13;138.40;;;44.33;;
17310;SDS011;8773;43.300;0.394;2022-12-29T14:18:09;110.90;;;37.90;;
17310;SDS011;8773;43.300;0.394;2022-12-29T14:20:46;51.37;;;19.43;;
17310;SDS011;8773;43.300;0.394;2022-12-29T14:23:27;20.70;;;8.70;;
17310;SDS011;8773;43.300;0.394;2022-12-29T14:26:12;7.80;;;4.33;;
17310;SDS011;8773;43.300;0.394;2022-12-29T14:28:45;31.47;;;14.23;;
17310;SDS011;8773;43.300;0.394;2022-12-29T14:31:33;27.20;;;13.43;;
17310;SDS011;8773;43.300;0.394;2022-12-29T14:34:28;4.57;;;3.60;;
17310;SDS011;8773;43.300;0.394;2022-12-29T14:36:59;3.90;;;3.50;;
17310;SDS011;8773;43.300;0.394;2022-12-29T14:39:31;6.00;;;3.97;;
17310;SDS011;8773;43.300;0.394;2022-12-29T14:42:03;4.40;;;4.00;;
17310;SDS011;8773;43.300;0.394;2022-12-29T14:44:45;5.43;;;4.33;;
17310;SDS011;8773;43.300;0.394;2022-12-29T14:47:16;6.37;;;4.23;;
17310;SDS011;8773;43.300;0.394;2022-12-29T14:49:48;5.47;;;4.97;;
17310;SDS011;8773;43.300;0.394;2022-12-29T14:52:18;6.37;;;5.50;;
17310;SDS011;8773;43.300;0.394;2022-12-29T14:54:50;4.90;;;4.50;;
17310;SDS011;8773;43.300;0.394;2022-12-29T14:57:22;5.17;;;2.40;;
17310;SDS011;8773;43.300;0.394;2022-12-29T14:59:58;3.60;;;1.50;;
17310;SDS011;8773;43.300;0.394;2022-12-29T15:02:34;5.13;;;1.47;;
17310;SDS011;8773;43.300;0.394;2022-12-29T15:05:19;1.50;;;1.40;;
17310;SDS011;8773;43.300;0.394;2022-12-29T15:07:54;3.57;;;1.47;;
17310;SDS011;8773;43.300;0.394;2022-12-29T15:10:25;1.60;;;1.50;;
17310;SDS011;8773;43.300;0.394;2022-12-29T15:13:02;2.73;;;2.50;;
17310;SDS011;8773;43.300;0.394;2022-12-29T15:15:37;1.80;;;1.80;;
17310;SDS011;8773;43.300;0.394;2022-12-29T15:18:13;1.67;;;1.63;;
17310;SDS011;8773;43.300;0.394;2022-12-29T15:20:42;1.60;;;1.60;;
17310;SDS011;8773;43.300;0.394;2022-12-29T15:23:11;3.80;;;1.70;;
17310;SDS011;8773;43.300;0.394;2022-12-29T15:25:45;1.70;;;1.57;;
17310;SDS011;8773;43.300;0.394;2022-12-29T15:28:17;1.43;;;1.37;;
17310;SDS011;8773;43.300;0.394;2022-12-29T15:30:56;1.20;;;1.17;;
17310;SDS011;8773;43.300;0.394;2022-12-29T15:33:30;1.47;;;1.37;;
17310;SDS011;8773;43.300;0.394;2022-12-29T15:36:03;1.30;;;1.30;;
17310;SDS011;8773;43.300;0.394;2022-12-29T15:38:38;1.27;;;1.27;;
17310;SDS011;8773;43.300;0.394;2022-12-29T15:41:07;1.40;;;1.40;;